Portada
METAR-TAF:

METAR-TAF

Aeropuertos :

Aeropuerto de Madrid-Cuatro Vientos

Madrid-Cuatro Vientos, España

latitud: 40-23N, longitud: 003-47W, altitud: 690 m

Observación

El informe se hizo hace 25 minutos, a las 00:30 UTC
Viento 2 kt con dirección variable
Temperatura 18°C
Humedad 64%
Presión 1020 hPa
Visibilidad 10 km o más
sin nubes por debajo de 1500 m y sin presencia de cumulonimbus.

METAR: LEVS 180030Z AUTO VRB02KT CAVOK 18/11 Q1020

Hora: 02:55 (00:55 UTC)

Pronóstico

El informe se hizo hace 1 hora y 55 minutos, a las 23:00 UTC
Pronóstico válido del 18 a las 00 UTC al 18 a las 24 UTC
Viento 5 kt con dirección variable
Visibilidad 10 km o más
sin nubes por debajo de 1500 m y sin presencia de cumulonimbus.
Probabilidad 30% :
Temporalmente
del 18 a las 11 UTC al 18 a las 20 UTC
Viento 10 kt del suroeste

TAF: LEVS 172300Z 1800/1824 VRB05KT CAVOK TX30/1815Z TN14/1806Z PROB30 TEMPO 1811/1820 23010KT

Observaciones y pronósticos meteorológicos de más de 4000 aeropuertos (mensajes METAR y TAF).

Los puntos amarillos y rojos representan las estaciones disponibles.

Ponga el ratón en el punto deseado para ver el nombre de la estación.

Haga clic para ver las observaciones y los pronósticos meteorológicos.

Para cambiar el mapa : haga clic en los botones verdes con una cruz de color negro para hacer un zoom, en el botón verde con un guión para alejar o en las flechas verdes para mapas adyacentes.


METAR-TAF: